Аэропорт
Muan International Airport (RKJB)

 RKJB / MWX

Korea, Republic of
KR-U-A
Кванджу
 34.99141, 126.38281  / 0 ft

 RKJB 201810Z AUTO 10006KT 2800 BR NCD 02/02 Q1033
 TAF AMD RKJB 201355Z 2014/2118 11005KT 0800 FG BKN007 BKN200 TN01/2021Z TX14/2105Z BECMG 2023/2024 2000 BR FEW030 BKN150 BECMG 2101/2102 6000 NSW BECMG 2104/2105 17010KT BECMG 2111/2112 23008KT 4200 -RA FEW010 BKN030 OVC080 BECMG 2114/2115 31010KT

2020 © VATRUS division (Privacy Policy)